LiveATC.Net - Listen to live air traffic control over the Internet!


ICAO: KTOL  IATA: TOL   Airport: Toledo Express Airport
City: Toledo   State/Province: Ohio
Country: United States   Continent: North America
KTOL METAR Weather: KTOL 161352Z 24007KT 10SM CLR 18/11 A2980 RMK AO2 SLP090 T01780111
KTOL Flight Activity (FlightAware)
KTOL Airport Info   (iFlightPlanner)
KTOL VFR Sectional Chart   (iFlightPlanner) 
KTOL IFR Low Altitude Chart   (iFlightPlanner) 
KTOL IFR High Altitude Chart   (iFlightPlanner) 

KTOL Del/Gnd/Twr/App
Feed Status: UP   Listeners: 0
Listen in your browser - HTML5 player (in browser, HTML5)
Click here to listen with your own player (launches your MP3 player)
Archive Access: KTOL Del/Gnd/Twr/App
FacilityFrequency
Toledo Approach (East)126.100
Toledo Approach (West)134.350
Toledo Clearance Delivery121.750
Toledo Ground121.900
Toledo Tower118.100

NOTICE

Unauthorized use prohibited. See LiveATC.net Terms of Service


Airport/ARTCC Code
Frequency Search
(e.g., 124.400, 128.75)
Site-wide search
 


Browse Feeds
Top 50 Feeds
HF Oceanic Feeds
Coverage Map
Bad Weather Areas

LiveATC FAQ
Offer LiveATC feed
Contact LiveATC.net
Press Inquiries

LiveATC on iPhone
LiveATC on Android

LiveATC Mobile
(Mobile browser)

ATC Audio Archives
Interesting Recordings

LiveATC Forums


Home Page
About LiveATC.net


Terms of Use
Privacy Policy

AIRMETs/SIGMETs

FAA Airport Status
NAS Status
Arrival Demand


Server Software By:
Icecast.org
Liquidsoap